sensor_id;sensor_type;location;lat;lon;timestamp;P1;durP1;ratioP1;P2;durP2;ratioP2
55372;SDS011;70018;47.838;16.490;2024-02-14T00:00:03;1.15;;;0.70;;
55372;SDS011;70018;47.838;16.490;2024-02-14T00:02:30;1.58;;;1.10;;
55372;SDS011;70018;47.838;16.490;2024-02-14T00:04:57;2.75;;;1.83;;
55372;SDS011;70018;47.838;16.490;2024-02-14T00:07:24;2.50;;;1.70;;
55372;SDS011;70018;47.838;16.490;2024-02-14T00:09:50;3.85;;;1.63;;
55372;SDS011;70018;47.838;16.490;2024-02-14T00:12:17;1.50;;;1.08;;
55372;SDS011;70018;47.838;16.490;2024-02-14T00:14:44;2.15;;;1.52;;
55372;SDS011;70018;47.838;16.490;2024-02-14T00:17:10;2.13;;;1.35;;
55372;SDS011;70018;47.838;16.490;2024-02-14T00:19:38;1.77;;;1.10;;
55372;SDS011;70018;47.838;16.490;2024-02-14T00:22:06;1.25;;;0.90;;
55372;SDS011;70018;47.838;16.490;2024-02-14T00:24:32;1.15;;;0.90;;
55372;SDS011;70018;47.838;16.490;2024-02-14T00:27:00;2.20;;;1.15;;
55372;SDS011;70018;47.838;16.490;2024-02-14T00:29:27;1.13;;;0.80;;
55372;SDS011;70018;47.838;16.490;2024-02-14T00:31:54;1.70;;;1.10;;
55372;SDS011;70018;47.838;16.490;2024-02-14T00:34:20;1.52;;;1.10;;
55372;SDS011;70018;47.838;16.490;2024-02-14T00:36:47;2.22;;;1.35;;
55372;SDS011;70018;47.838;16.490;2024-02-14T00:39:14;1.25;;;0.98;;
55372;SDS011;70018;47.838;16.490;2024-02-14T00:41:41;0.68;;;0.68;;
55372;SDS011;70018;47.838;16.490;2024-02-14T00:44:07;2.88;;;1.05;;
55372;SDS011;70018;47.838;16.490;2024-02-14T00:46:34;1.58;;;1.27;;
55372;SDS011;70018;47.838;16.490;2024-02-14T00:49:01;1.58;;;1.05;;
55372;SDS011;70018;47.838;16.490;2024-02-14T00:51:28;1.42;;;1.13;;
55372;SDS011;70018;47.838;16.490;2024-02-14T00:53:54;2.85;;;1.35;;
55372;SDS011;70018;47.838;16.490;2024-02-14T00:56:21;5.50;;;1.67;;
55372;SDS011;70018;47.838;16.490;2024-02-14T00:58:50;3.42;;;1.40;;
55372;SDS011;70018;47.838;16.490;2024-02-14T01:01:16;1.00;;;0.95;;
55372;SDS011;70018;47.838;16.490;2024-02-14T01:03:43;2.03;;;1.40;;
55372;SDS011;70018;47.838;16.490;2024-02-14T01:06:10;1.20;;;1.08;;
55372;SDS011;70018;47.838;16.490;2024-02-14T01:08:37;4.45;;;1.08;;
55372;SDS011;70018;47.838;16.490;2024-02-14T01:11:04;5.93;;;1.30;;
55372;SDS011;70018;47.838;16.490;2024-02-14T01:13:31;3.97;;;1.25;;
55372;SDS011;70018;47.838;16.490;2024-02-14T01:15:58;1.00;;;0.90;;
55372;SDS011;70018;47.838;16.490;2024-02-14T01:18:24;0.98;;;0.73;;
55372;SDS011;70018;47.838;16.490;2024-02-14T01:20:52;6.53;;;1.40;;
55372;SDS011;70018;47.838;16.490;2024-02-14T01:23:20;2.75;;;0.93;;
55372;SDS011;70018;47.838;16.490;2024-02-14T01:25:46;0.73;;;0.73;;
55372;SDS011;70018;47.838;16.490;2024-02-14T01:28:13;1.20;;;0.90;;
55372;SDS011;70018;47.838;16.490;2024-02-14T01:30:40;1.55;;;1.08;;
55372;SDS011;70018;47.838;16.490;2024-02-14T01:33:07;1.58;;;1.20;;
55372;SDS011;70018;47.838;16.490;2024-02-14T01:35:34;2.65;;;1.00;;
55372;SDS011;70018;47.838;16.490;2024-02-14T01:38:01;4.55;;;1.40;;
55372;SDS011;70018;47.838;16.490;2024-02-14T01:40:29;1.50;;;0.90;;
55372;SDS011;70018;47.838;16.490;2024-02-14T01:42:55;1.25;;;0.80;;
55372;SDS011;70018;47.838;16.490;2024-02-14T01:45:22;0.65;;;0.60;;
55372;SDS011;70018;47.838;16.490;2024-02-14T01:47:49;0.88;;;0.80;;
55372;SDS011;70018;47.838;16.490;2024-02-14T01:50:17;1.00;;;0.75;;
55372;SDS011;70018;47.838;16.490;2024-02-14T01:52:44;0.60;;;0.60;;
55372;SDS011;70018;47.838;16.490;2024-02-14T01:55:12;2.92;;;1.00;;
55372;SDS011;70018;47.838;16.490;2024-02-14T01:57:39;4.97;;;1.60;;
55372;SDS011;70018;47.838;16.490;2024-02-14T02:00:06;1.20;;;0.85;;
55372;SDS011;70018;47.838;16.490;2024-02-14T02:02:44;1.42;;;1.13;;
55372;SDS011;70018;47.838;16.490;2024-02-14T02:05:13;4.07;;;1.10;;
55372;SDS011;70018;47.838;16.490;2024-02-14T02:07:40;1.73;;;1.15;;
55372;SDS011;70018;47.838;16.490;2024-02-14T02:10:12;1.88;;;1.20;;
55372;SDS011;70018;47.838;16.490;2024-02-14T02:12:39;0.90;;;0.70;;
55372;SDS011;70018;47.838;16.490;2024-02-14T02:15:06;1.08;;;0.90;;
55372;SDS011;70018;47.838;16.490;2024-02-14T02:17:33;2.10;;;0.95;;
55372;SDS011;70018;47.838;16.490;2024-02-14T02:20:00;1.23;;;0.88;;
55372;SDS011;70018;47.838;16.490;2024-02-14T02:22:28;0.95;;;0.88;;
55372;SDS011;70018;47.838;16.490;2024-02-14T02:24:58;0.65;;;0.65;;
55372;SDS011;70018;47.838;16.490;2024-02-14T02:27:25;1.05;;;0.95;;
55372;SDS011;70018;47.838;16.490;2024-02-14T02:29:52;1.15;;;0.80;;
55372;SDS011;70018;47.838;16.490;2024-02-14T02:32:18;3.45;;;1.15;;
55372;SDS011;70018;47.838;16.490;2024-02-14T02:34:45;2.22;;;0.93;;
55372;SDS011;70018;47.838;16.490;2024-02-14T02:37:12;0.82;;;0.80;;
55372;SDS011;70018;47.838;16.490;2024-02-14T02:39:38;1.48;;;1.08;;
55372;SDS011;70018;47.838;16.490;2024-02-14T02:42:05;4.65;;;1.23;;
55372;SDS011;70018;47.838;16.490;2024-02-14T02:44:32;2.80;;;1.10;;
55372;SDS011;70018;47.838;16.490;2024-02-14T02:46:59;1.15;;;0.82;;
55372;SDS011;70018;47.838;16.490;2024-02-14T02:49:27;2.33;;;1.40;;
55372;SDS011;70018;47.838;16.490;2024-02-14T02:51:55;4.45;;;1.98;;
55372;SDS011;70018;47.838;16.490;2024-02-14T02:54:22;2.53;;;1.17;;
55372;SDS011;70018;47.838;16.490;2024-02-14T02:56:49;0.70;;;0.70;;
55372;SDS011;70018;47.838;16.490;2024-02-14T02:59:16;0.70;;;0.68;;
55372;SDS011;70018;47.838;16.490;2024-02-14T03:01:43;3.20;;;1.75;;
55372;SDS011;70018;47.838;16.490;2024-02-14T03:04:10;2.47;;;1.10;;
55372;SDS011;70018;47.838;16.490;2024-02-14T03:06:39;7.03;;;1.27;;
55372;SDS011;70018;47.838;16.490;2024-02-14T03:09:06;1.85;;;1.10;;
55372;SDS011;70018;47.838;16.490;2024-02-14T03:11:34;1.98;;;1.02;;
55372;SDS011;70018;47.838;16.490;2024-02-14T03:14:03;0.95;;;0.82;;
55372;SDS011;70018;47.838;16.490;2024-02-14T03:16:30;1.33;;;0.93;;
55372;SDS011;70018;47.838;16.490;2024-02-14T03:18:57;1.08;;;0.85;;
55372;SDS011;70018;47.838;16.490;2024-02-14T03:21:25;1.20;;;1.10;;
55372;SDS011;70018;47.838;16.490;2024-02-14T03:23:51;1.85;;;1.23;;
55372;SDS011;70018;47.838;16.490;2024-02-14T03:26:20;1.25;;;1.00;;
55372;SDS011;70018;47.838;16.490;2024-02-14T03:28:47;7.13;;;1.75;;
55372;SDS011;70018;47.838;16.490;2024-02-14T03:31:15;5.57;;;0.90;;
55372;SDS011;70018;47.838;16.490;2024-02-14T03:33:42;1.50;;;1.05;;
55372;SDS011;70018;47.838;16.490;2024-02-14T03:36:10;1.50;;;1.20;;
55372;SDS011;70018;47.838;16.490;2024-02-14T03:38:37;0.85;;;0.80;;
55372;SDS011;70018;47.838;16.490;2024-02-14T03:41:06;2.42;;;1.55;;
55372;SDS011;70018;47.838;16.490;2024-02-14T03:43:33;3.85;;;1.10;;
55372;SDS011;70018;47.838;16.490;2024-02-14T03:46:00;2.08;;;1.20;;
55372;SDS011;70018;47.838;16.490;2024-02-14T03:48:27;1.50;;;1.20;;
55372;SDS011;70018;47.838;16.490;2024-02-14T03:50:54;2.17;;;1.23;;
55372;SDS011;70018;47.838;16.490;2024-02-14T03:53:21;1.63;;;1.15;;
55372;SDS011;70018;47.838;16.490;2024-02-14T03:55:47;1.15;;;0.90;;
55372;SDS011;70018;47.838;16.490;2024-02-14T03:58:15;3.03;;;1.40;;
55372;SDS011;70018;47.838;16.490;2024-02-14T04:00:51;2.35;;;1.55;;
55372;SDS011;70018;47.838;16.490;2024-02-14T04:03:18;1.67;;;1.20;;
55372;SDS011;70018;47.838;16.490;2024-02-14T04:05:45;2.83;;;0.80;;
55372;SDS011;70018;47.838;16.490;2024-02-14T04:08:14;0.55;;;0.55;;
55372;SDS011;70018;47.838;16.490;2024-02-14T04:10:41;4.80;;;1.45;;
55372;SDS011;70018;47.838;16.490;2024-02-14T04:13:07;1.77;;;1.00;;
55372;SDS011;70018;47.838;16.490;2024-02-14T04:15:36;1.63;;;1.00;;
55372;SDS011;70018;47.838;16.490;2024-02-14T04:18:02;2.45;;;1.23;;
55372;SDS011;70018;47.838;16.490;2024-02-14T04:20:33;2.67;;;0.90;;
55372;SDS011;70018;47.838;16.490;2024-02-14T04:23:00;0.98;;;0.90;;
55372;SDS011;70018;47.838;16.490;2024-02-14T04:25:27;8.07;;;3.08;;
55372;SDS011;70018;47.838;16.490;2024-02-14T04:27:53;9.32;;;4.43;;
55372;SDS011;70018;47.838;16.490;2024-02-14T04:30:20;1.63;;;1.10;;
55372;SDS011;70018;47.838;16.490;2024-02-14T04:32:47;1.73;;;1.15;;
55372;SDS011;70018;47.838;16.490;2024-02-14T04:35:15;3.42;;;1.35;;
55372;SDS011;70018;47.838;16.490;2024-02-14T04:37:42;4.00;;;1.35;;
55372;SDS011;70018;47.838;16.490;2024-02-14T04:40:12;1.77;;;1.35;;
55372;SDS011;70018;47.838;16.490;2024-02-14T04:42:39;5.88;;;0.90;;
55372;SDS011;70018;47.838;16.490;2024-02-14T04:45:07;1.50;;;1.10;;
55372;SDS011;70018;47.838;16.490;2024-02-14T04:47:35;2.75;;;1.10;;
55372;SDS011;70018;47.838;16.490;2024-02-14T04:50:02;0.70;;;0.70;;
55372;SDS011;70018;47.838;16.490;2024-02-14T04:52:30;1.05;;;0.88;;
55372;SDS011;70018;47.838;16.490;2024-02-14T04:54:57;5.60;;;1.17;;
55372;SDS011;70018;47.838;16.490;2024-02-14T04:57:23;2.22;;;0.80;;
55372;SDS011;70018;47.838;16.490;2024-02-14T05:16:03;1.23;;;0.93;;
55372;SDS011;70018;47.838;16.490;2024-02-14T05:18:30;0.70;;;0.70;;
55372;SDS011;70018;47.838;16.490;2024-02-14T05:20:57;0.40;;;0.40;;
55372;SDS011;70018;47.838;16.490;2024-02-14T05:23:24;3.33;;;1.52;;
55372;SDS011;70018;47.838;16.490;2024-02-14T05:25:51;1.10;;;0.90;;
55372;SDS011;70018;47.838;16.490;2024-02-14T05:28:19;3.60;;;1.00;;
55372;SDS011;70018;47.838;16.490;2024-02-14T05:30:47;1.10;;;0.90;;
55372;SDS011;70018;47.838;16.490;2024-02-14T05:33:13;0.95;;;0.88;;
55372;SDS011;70018;47.838;16.490;2024-02-14T05:35:41;0.80;;;0.80;;
55372;SDS011;70018;47.838;16.490;2024-02-14T05:38:07;3.45;;;1.00;;
55372;SDS011;70018;47.838;16.490;2024-02-14T05:40:34;0.85;;;0.80;;
55372;SDS011;70018;47.838;16.490;2024-02-14T05:43:04;6.25;;;1.00;;
55372;SDS011;70018;47.838;16.490;2024-02-14T05:45:30;0.90;;;0.80;;
55372;SDS011;70018;47.838;16.490;2024-02-14T05:47:57;3.20;;;1.33;;
55372;SDS011;70018;47.838;16.490;2024-02-14T05:50:24;1.85;;;0.93;;
55372;SDS011;70018;47.838;16.490;2024-02-14T05:52:50;1.45;;;0.90;;
55372;SDS011;70018;47.838;16.490;2024-02-14T05:57:59;1.08;;;0.98;;
55372;SDS011;70018;47.838;16.490;2024-02-14T06:00:26;1.08;;;0.82;;
55372;SDS011;70018;47.838;16.490;2024-02-14T06:02:55;1.48;;;0.68;;
55372;SDS011;70018;47.838;16.490;2024-02-14T06:05:22;4.18;;;1.42;;
55372;SDS011;70018;47.838;16.490;2024-02-14T06:07:49;1.00;;;0.85;;
55372;SDS011;70018;47.838;16.490;2024-02-14T06:10:18;1.30;;;0.93;;
55372;SDS011;70018;47.838;16.490;2024-02-14T06:12:45;1.48;;;1.25;;
55372;SDS011;70018;47.838;16.490;2024-02-14T06:15:14;1.52;;;1.17;;
55372;SDS011;70018;47.838;16.490;2024-02-14T06:17:41;1.98;;;1.35;;
55372;SDS011;70018;47.838;16.490;2024-02-14T06:20:08;2.17;;;1.42;;
55372;SDS011;70018;47.838;16.490;2024-02-14T06:22:35;5.20;;;1.92;;
55372;SDS011;70018;47.838;16.490;2024-02-14T06:25:13;6.20;;;2.75;;
55372;SDS011;70018;47.838;16.490;2024-02-14T06:27:39;2.17;;;1.48;;
55372;SDS011;70018;47.838;16.490;2024-02-14T06:30:06;3.80;;;1.45;;
55372;SDS011;70018;47.838;16.490;2024-02-14T06:32:34;4.75;;;1.63;;
55372;SDS011;70018;47.838;16.490;2024-02-14T06:35:02;2.10;;;1.35;;
55372;SDS011;70018;47.838;16.490;2024-02-14T06:37:29;1.58;;;1.13;;
55372;SDS011;70018;47.838;16.490;2024-02-14T06:40:07;3.92;;;1.30;;
55372;SDS011;70018;47.838;16.490;2024-02-14T06:42:35;2.33;;;1.45;;
55372;SDS011;70018;47.838;16.490;2024-02-14T06:45:01;3.03;;;1.17;;
55372;SDS011;70018;47.838;16.490;2024-02-14T06:47:29;1.65;;;1.10;;
55372;SDS011;70018;47.838;16.490;2024-02-14T06:49:56;0.93;;;0.82;;
55372;SDS011;70018;47.838;16.490;2024-02-14T06:52:24;1.33;;;0.95;;
55372;SDS011;70018;47.838;16.490;2024-02-14T06:54:50;1.60;;;1.20;;
55372;SDS011;70018;47.838;16.490;2024-02-14T06:57:17;1.25;;;1.00;;
55372;SDS011;70018;47.838;16.490;2024-02-14T06:59:44;1.67;;;1.10;;
55372;SDS011;70018;47.838;16.490;2024-02-14T07:02:11;2.15;;;1.20;;
55372;SDS011;70018;47.838;16.490;2024-02-14T07:04:39;1.98;;;1.30;;
55372;SDS011;70018;47.838;16.490;2024-02-14T07:07:06;1.85;;;1.15;;
55372;SDS011;70018;47.838;16.490;2024-02-14T07:09:34;2.35;;;1.48;;
55372;SDS011;70018;47.838;16.490;2024-02-14T07:12:05;1.25;;;1.00;;
55372;SDS011;70018;47.838;16.490;2024-02-14T07:14:32;3.83;;;1.55;;
55372;SDS011;70018;47.838;16.490;2024-02-14T07:16:59;2.72;;;1.33;;
55372;SDS011;70018;47.838;16.490;2024-02-14T07:19:25;1.67;;;1.02;;
55372;SDS011;70018;47.838;16.490;2024-02-14T07:21:52;3.38;;;1.40;;
55372;SDS011;70018;47.838;16.490;2024-02-14T07:24:19;2.20;;;1.35;;
55372;SDS011;70018;47.838;16.490;2024-02-14T07:26:46;2.63;;;1.15;;
55372;SDS011;70018;47.838;16.490;2024-02-14T07:29:12;1.27;;;1.10;;
55372;SDS011;70018;47.838;16.490;2024-02-14T07:31:39;4.47;;;2.28;;
55372;SDS011;70018;47.838;16.490;2024-02-14T07:34:06;0.70;;;0.70;;
55372;SDS011;70018;47.838;16.490;2024-02-14T07:36:35;2.97;;;1.02;;
55372;SDS011;70018;47.838;16.490;2024-02-14T07:39:02;1.48;;;0.80;;
55372;SDS011;70018;47.838;16.490;2024-02-14T07:41:29;1.90;;;0.77;;
55372;SDS011;70018;47.838;16.490;2024-02-14T07:43:57;1.13;;;0.90;;
55372;SDS011;70018;47.838;16.490;2024-02-14T07:46:24;0.65;;;0.63;;
55372;SDS011;70018;47.838;16.490;2024-02-14T07:48:53;3.47;;;1.30;;
55372;SDS011;70018;47.838;16.490;2024-02-14T07:51:20;1.52;;;0.90;;
55372;SDS011;70018;47.838;16.490;2024-02-14T07:53:46;0.82;;;0.65;;
55372;SDS011;70018;47.838;16.490;2024-02-14T07:56:13;2.70;;;1.02;;
55372;SDS011;70018;47.838;16.490;2024-02-14T07:58:40;2.03;;;0.90;;
55372;SDS011;70018;47.838;16.490;2024-02-14T08:01:06;2.80;;;0.98;;
55372;SDS011;70018;47.838;16.490;2024-02-14T08:03:33;0.88;;;0.60;;
55372;SDS011;70018;47.838;16.490;2024-02-14T08:06:00;2.60;;;0.52;;
55372;SDS011;70018;47.838;16.490;2024-02-14T08:08:27;0.40;;;0.40;;
55372;SDS011;70018;47.838;16.490;2024-02-14T08:10:54;1.15;;;0.73;;
55372;SDS011;70018;47.838;16.490;2024-02-14T08:13:21;1.48;;;1.02;;
55372;SDS011;70018;47.838;16.490;2024-02-14T08:15:48;1.77;;;0.90;;
55372;SDS011;70018;47.838;16.490;2024-02-14T08:18:15;2.67;;;1.23;;
55372;SDS011;70018;47.838;16.490;2024-02-14T09:26:17;2.85;;;0.85;;
55372;SDS011;70018;47.838;16.490;2024-02-14T09:28:44;1.38;;;0.70;;
55372;SDS011;70018;47.838;16.490;2024-02-14T09:31:10;1.98;;;0.88;;
55372;SDS011;70018;47.838;16.490;2024-02-14T09:33:38;0.63;;;0.63;;
55372;SDS011;70018;47.838;16.490;2024-02-14T09:36:06;0.80;;;0.65;;
55372;SDS011;70018;47.838;16.490;2024-02-14T09:38:33;0.80;;;0.50;;
55372;SDS011;70018;47.838;16.490;2024-02-14T09:41:06;0.50;;;0.50;;
55372;SDS011;70018;47.838;16.490;2024-02-14T09:43:48;0.57;;;0.50;;
55372;SDS011;70018;47.838;16.490;2024-02-14T09:46:15;0.95;;;0.68;;
55372;SDS011;70018;47.838;16.490;2024-02-14T09:48:43;2.08;;;0.70;;
55372;SDS011;70018;47.838;16.490;2024-02-14T09:51:11;1.52;;;0.30;;
55372;SDS011;70018;47.838;16.490;2024-02-14T09:53:39;1.63;;;0.88;;
55372;SDS011;70018;47.838;16.490;2024-02-14T09:56:08;2.35;;;0.88;;
55372;SDS011;70018;47.838;16.490;2024-02-14T09:58:36;2.55;;;0.88;;
55372;SDS011;70018;47.838;16.490;2024-02-14T10:01:04;3.50;;;0.70;;
55372;SDS011;70018;47.838;16.490;2024-02-14T10:03:33;0.60;;;0.50;;
55372;SDS011;70018;47.838;16.490;2024-02-14T10:06:00;0.98;;;0.65;;
55372;SDS011;70018;47.838;16.490;2024-02-14T10:08:28;0.82;;;0.52;;
55372;SDS011;70018;47.838;16.490;2024-02-14T10:10:56;2.17;;;0.85;;
55372;SDS011;70018;47.838;16.490;2024-02-14T10:13:28;2.17;;;0.80;;
55372;SDS011;70018;47.838;16.490;2024-02-14T10:15:55;1.35;;;0.98;;
55372;SDS011;70018;47.838;16.490;2024-02-14T10:18:22;1.75;;;0.80;;
55372;SDS011;70018;47.838;16.490;2024-02-14T10:20:56;3.97;;;1.13;;
55372;SDS011;70018;47.838;16.490;2024-02-14T10:23:23;2.85;;;0.75;;
55372;SDS011;70018;47.838;16.490;2024-02-14T10:25:52;1.83;;;0.95;;
55372;SDS011;70018;47.838;16.490;2024-02-14T10:28:20;1.13;;;0.60;;
55372;SDS011;70018;47.838;16.490;2024-02-14T10:30:58;2.88;;;0.75;;
55372;SDS011;70018;47.838;16.490;2024-02-14T10:33:27;1.20;;;0.82;;
55372;SDS011;70018;47.838;16.490;2024-02-14T10:35:56;0.90;;;0.60;;
55372;SDS011;70018;47.838;16.490;2024-02-14T10:38:28;1.13;;;0.73;;
55372;SDS011;70018;47.838;16.490;2024-02-14T10:40:59;1.75;;;0.70;;
55372;SDS011;70018;47.838;16.490;2024-02-14T10:43:27;2.58;;;0.70;;
55372;SDS011;70018;47.838;16.490;2024-02-14T10:45:54;2.30;;;0.75;;
55372;SDS011;70018;47.838;16.490;2024-02-14T10:48:22;1.98;;;0.82;;
55372;SDS011;70018;47.838;16.490;2024-02-14T10:50:53;0.30;;;0.30;;
55372;SDS011;70018;47.838;16.490;2024-02-14T10:53:21;0.95;;;0.50;;
55372;SDS011;70018;47.838;16.490;2024-02-14T10:55:50;4.65;;;1.05;;
55372;SDS011;70018;47.838;16.490;2024-02-14T10:58:18;1.10;;;0.70;;
55372;SDS011;70018;47.838;16.490;2024-02-14T11:00:45;1.63;;;0.80;;
55372;SDS011;70018;47.838;16.490;2024-02-14T11:03:13;1.75;;;0.70;;
55372;SDS011;70018;47.838;16.490;2024-02-14T11:05:45;2.42;;;0.98;;
55372;SDS011;70018;47.838;16.490;2024-02-14T11:08:13;1.13;;;0.50;;
55372;SDS011;70018;47.838;16.490;2024-02-14T11:10:41;4.50;;;0.80;;
55372;SDS011;70018;47.838;16.490;2024-02-14T11:13:15;2.22;;;1.00;;
55372;SDS011;70018;47.838;16.490;2024-02-14T11:15:44;2.92;;;0.98;;
55372;SDS011;70018;47.838;16.490;2024-02-14T11:18:13;2.65;;;1.20;;
55372;SDS011;70018;47.838;16.490;2024-02-14T11:20:40;1.63;;;0.90;;
55372;SDS011;70018;47.838;16.490;2024-02-14T11:23:08;1.95;;;0.70;;
55372;SDS011;70018;47.838;16.490;2024-02-14T11:25:38;0.77;;;0.50;;
55372;SDS011;70018;47.838;16.490;2024-02-14T11:28:14;1.38;;;0.60;;
55372;SDS011;70018;47.838;16.490;2024-02-14T11:30:49;1.15;;;0.63;;
55372;SDS011;70018;47.838;16.490;2024-02-14T11:33:17;2.28;;;1.02;;
55372;SDS011;70018;47.838;16.490;2024-02-14T11:35:48;0.57;;;0.40;;
55372;SDS011;70018;47.838;16.490;2024-02-14T11:38:18;0.40;;;0.40;;
55372;SDS011;70018;47.838;16.490;2024-02-14T11:40:45;0.43;;;0.43;;
55372;SDS011;70018;47.838;16.490;2024-02-14T11:43:13;0.43;;;0.43;;
55372;SDS011;70018;47.838;16.490;2024-02-14T11:45:41;1.00;;;0.68;;
55372;SDS011;70018;47.838;16.490;2024-02-14T11:48:11;0.95;;;0.60;;
55372;SDS011;70018;47.838;16.490;2024-02-14T11:50:40;0.90;;;0.52;;
55372;SDS011;70018;47.838;16.490;2024-02-14T11:53:07;0.65;;;0.40;;
55372;SDS011;70018;47.838;16.490;2024-02-14T11:55:36;3.38;;;0.70;;
55372;SDS011;70018;47.838;16.490;2024-02-14T11:58:07;0.85;;;0.52;;
55372;SDS011;70018;47.838;16.490;2024-02-14T12:00:37;0.68;;;0.55;;
55372;SDS011;70018;47.838;16.490;2024-02-14T12:03:08;0.93;;;0.60;;
55372;SDS011;70018;47.838;16.490;2024-02-14T12:05:52;4.15;;;0.50;;
55372;SDS011;70018;47.838;16.490;2024-02-14T12:08:20;0.68;;;0.35;;
55372;SDS011;70018;47.838;16.490;2024-02-14T12:10:48;1.45;;;0.63;;
55372;SDS011;70018;47.838;16.490;2024-02-14T12:13:22;0.60;;;0.40;;
55372;SDS011;70018;47.838;16.490;2024-02-14T12:15:50;1.25;;;0.45;;
55372;SDS011;70018;47.838;16.490;2024-02-14T12:18:19;1.73;;;0.55;;
55372;SDS011;70018;47.838;16.490;2024-02-14T12:20:48;0.77;;;0.40;;
55372;SDS011;70018;47.838;16.490;2024-02-14T12:23:21;0.90;;;0.50;;
55372;SDS011;70018;47.838;16.490;2024-02-14T12:25:49;1.50;;;0.50;;
55372;SDS011;70018;47.838;16.490;2024-02-14T12:28:17;1.85;;;0.57;;
55372;SDS011;70018;47.838;16.490;2024-02-14T12:30:47;2.17;;;0.52;;
55372;SDS011;70018;47.838;16.490;2024-02-14T12:33:24;1.38;;;0.50;;
55372;SDS011;70018;47.838;16.490;2024-02-14T12:35:55;0.70;;;0.30;;
55372;SDS011;70018;47.838;16.490;2024-02-14T12:38:24;1.73;;;0.40;;
55372;SDS011;70018;47.838;16.490;2024-02-14T12:40:51;0.55;;;0.40;;
55372;SDS011;70018;47.838;16.490;2024-02-14T12:43:20;0.52;;;0.32;;
55372;SDS011;70018;47.838;16.490;2024-02-14T12:45:47;2.38;;;0.68;;
55372;SDS011;70018;47.838;16.490;2024-02-14T12:48:21;1.15;;;0.70;;
55372;SDS011;70018;47.838;16.490;2024-02-14T12:50:49;2.35;;;1.00;;
55372;SDS011;70018;47.838;16.490;2024-02-14T12:53:17;1.67;;;0.52;;
55372;SDS011;70018;47.838;16.490;2024-02-14T12:55:46;0.98;;;0.40;;
55372;SDS011;70018;47.838;16.490;2024-02-14T12:58:13;0.45;;;0.40;;
55372;SDS011;70018;47.838;16.490;2024-02-14T13:00:41;0.40;;;0.20;;
55372;SDS011;70018;47.838;16.490;2024-02-14T13:03:09;1.35;;;0.40;;
55372;SDS011;70018;47.838;16.490;2024-02-14T13:05:39;0.90;;;0.30;;
55372;SDS011;70018;47.838;16.490;2024-02-14T13:08:06;0.63;;;0.30;;
55372;SDS011;70018;47.838;16.490;2024-02-14T13:10:33;0.82;;;0.50;;
55372;SDS011;70018;47.838;16.490;2024-02-14T13:13:00;1.40;;;0.50;;
55372;SDS011;70018;47.838;16.490;2024-02-14T13:15:27;2.63;;;0.60;;
55372;SDS011;70018;47.838;16.490;2024-02-14T13:17:54;0.98;;;0.57;;
55372;SDS011;70018;47.838;16.490;2024-02-14T13:20:23;0.73;;;0.40;;
55372;SDS011;70018;47.838;16.490;2024-02-14T13:22:49;3.40;;;0.47;;
55372;SDS011;70018;47.838;16.490;2024-02-14T13:25:16;0.20;;;0.20;;
55372;SDS011;70018;47.838;16.490;2024-02-14T13:27:44;1.55;;;0.82;;
55372;SDS011;70018;47.838;16.490;2024-02-14T13:30:11;0.20;;;0.20;;
55372;SDS011;70018;47.838;16.490;2024-02-14T13:32:38;0.88;;;0.30;;
55372;SDS011;70018;47.838;16.490;2024-02-14T13:35:05;1.48;;;0.50;;
55372;SDS011;70018;47.838;16.490;2024-02-14T13:37:32;1.55;;;0.45;;
55372;SDS011;70018;47.838;16.490;2024-02-14T13:39:59;1.00;;;0.57;;
55372;SDS011;70018;47.838;16.490;2024-02-14T13:42:27;0.32;;;0.30;;
55372;SDS011;70018;47.838;16.490;2024-02-14T13:44:54;1.05;;;0.50;;
55372;SDS011;70018;47.838;16.490;2024-02-14T13:47:21;0.85;;;0.40;;
55372;SDS011;70018;47.838;16.490;2024-02-14T13:49:49;0.40;;;0.40;;
55372;SDS011;70018;47.838;16.490;2024-02-14T13:52:16;0.47;;;0.40;;
55372;SDS011;70018;47.838;16.490;2024-02-14T13:54:44;0.47;;;0.35;;
55372;SDS011;70018;47.838;16.490;2024-02-14T13:57:10;0.60;;;0.40;;
55372;SDS011;70018;47.838;16.490;2024-02-14T13:59:38;1.38;;;0.63;;
55372;SDS011;70018;47.838;16.490;2024-02-14T14:02:05;0.52;;;0.45;;
55372;SDS011;70018;47.838;16.490;2024-02-14T14:04:31;1.38;;;0.55;;
55372;SDS011;70018;47.838;16.490;2024-02-14T14:07:01;2.03;;;0.65;;
55372;SDS011;70018;47.838;16.490;2024-02-14T14:09:31;1.48;;;0.73;;
55372;SDS011;70018;47.838;16.490;2024-02-14T14:11:59;0.50;;;0.40;;
55372;SDS011;70018;47.838;16.490;2024-02-14T14:14:26;2.13;;;1.00;;
55372;SDS011;70018;47.838;16.490;2024-02-14T14:16:53;5.20;;;0.90;;
55372;SDS011;70018;47.838;16.490;2024-02-14T14:19:20;1.75;;;0.63;;
55372;SDS011;70018;47.838;16.490;2024-02-14T14:21:47;0.70;;;0.50;;
55372;SDS011;70018;47.838;16.490;2024-02-14T14:24:14;1.85;;;0.60;;
55372;SDS011;70018;47.838;16.490;2024-02-14T14:26:41;1.90;;;0.52;;
55372;SDS011;70018;47.838;16.490;2024-02-14T14:29:08;0.45;;;0.40;;
55372;SDS011;70018;47.838;16.490;2024-02-14T14:31:36;1.40;;;0.50;;
55372;SDS011;70018;47.838;16.490;2024-02-14T14:34:03;1.77;;;0.70;;
55372;SDS011;70018;47.838;16.490;2024-02-14T14:36:30;0.75;;;0.50;;
55372;SDS011;70018;47.838;16.490;2024-02-14T14:38:57;1.88;;;0.63;;
55372;SDS011;70018;47.838;16.490;2024-02-14T14:41:24;1.50;;;0.50;;
55372;SDS011;70018;47.838;16.490;2024-02-14T14:43:50;0.65;;;0.30;;
55372;SDS011;70018;47.838;16.490;2024-02-14T14:46:17;0.20;;;0.20;;
55372;SDS011;70018;47.838;16.490;2024-02-14T14:48:46;1.35;;;0.32;;
55372;SDS011;70018;47.838;16.490;2024-02-14T14:51:13;2.67;;;0.35;;
55372;SDS011;70018;47.838;16.490;2024-02-14T14:53:40;1.90;;;0.40;;
55372;SDS011;70018;47.838;16.490;2024-02-14T14:56:07;0.77;;;0.28;;
55372;SDS011;70018;47.838;16.490;2024-02-14T14:58:34;0.98;;;0.40;;
55372;SDS011;70018;47.838;16.490;2024-02-14T15:01:02;0.85;;;0.35;;
55372;SDS011;70018;47.838;16.490;2024-02-14T15:03:30;0.75;;;0.20;;
55372;SDS011;70018;47.838;16.490;2024-02-14T15:05:57;0.25;;;0.25;;
55372;SDS011;70018;47.838;16.490;2024-02-14T15:08:24;0.32;;;0.30;;
55372;SDS011;70018;47.838;16.490;2024-02-14T15:10:54;0.40;;;0.20;;
55372;SDS011;70018;47.838;16.490;2024-02-14T15:13:22;0.60;;;0.43;;
55372;SDS011;70018;47.838;16.490;2024-02-14T15:15:50;1.08;;;0.52;;
55372;SDS011;70018;47.838;16.490;2024-02-14T15:18:18;1.00;;;0.70;;
55372;SDS011;70018;47.838;16.490;2024-02-14T15:20:45;1.10;;;0.40;;
55372;SDS011;70018;47.838;16.490;2024-02-14T15:23:12;1.48;;;0.63;;
55372;SDS011;70018;47.838;16.490;2024-02-14T15:25:39;0.88;;;0.43;;
55372;SDS011;70018;47.838;16.490;2024-02-14T15:28:09;0.68;;;0.40;;
55372;SDS011;70018;47.838;16.490;2024-02-14T15:30:44;0.90;;;0.55;;
55372;SDS011;70018;47.838;16.490;2024-02-14T15:33:29;2.97;;;0.70;;
55372;SDS011;70018;47.838;16.490;2024-02-14T15:35:57;1.48;;;0.70;;
55372;SDS011;70018;47.838;16.490;2024-02-14T15:38:26;2.95;;;1.05;;
55372;SDS011;70018;47.838;16.490;2024-02-14T15:40:54;1.30;;;0.80;;
55372;SDS011;70018;47.838;16.490;2024-02-14T15:43:24;1.00;;;0.50;;
55372;SDS011;70018;47.838;16.490;2024-02-14T15:45:52;1.38;;;0.73;;
55372;SDS011;70018;47.838;16.490;2024-02-14T15:48:18;0.73;;;0.70;;
55372;SDS011;70018;47.838;16.490;2024-02-14T15:50:51;2.78;;;0.85;;
55372;SDS011;70018;47.838;16.490;2024-02-14T15:53:17;0.73;;;0.50;;
55372;SDS011;70018;47.838;16.490;2024-02-14T15:55:45;4.57;;;0.73;;
55372;SDS011;70018;47.838;16.490;2024-02-14T15:58:13;0.65;;;0.45;;
55372;SDS011;70018;47.838;16.490;2024-02-14T16:00:40;1.85;;;0.68;;